Time;durP1;ratioP1;P1;durP2;ratioP2;P2;SDS_P1;SDS_P2;PMS_P1;PMS_P2;Temp;Humidity;BMP_temperature;BMP_pressure;BME280_temperature;BME280_humidity;BME280_pressure;Samples;Min_cycle;Max_cycle;Signal;HPM_P1;HPM_P2
2021/05/19 00:02:09;;;;;;;;;;;;;;;12.33;67.89;100419.43;1731881;81;20182;-75
2021/05/19 00:04:35;;;;;;;;;;;;;;;12.32;67.95;100424.66;1753093;81;20185;-75
2021/05/19 00:07:01;;;;;;;;;;;;;;;12.32;67.97;100422.06;1739032;81;20163;-75
2021/05/19 00:09:28;;;;;;;;;;;;;;;12.30;67.96;100418.66;1755391;81;20155;-75
2021/05/19 00:11:54;;;;;;;;;;;;;;;12.28;67.95;100417.41;1723356;80;326549;-74
2021/05/19 00:14:20;;;;;;;;;;;;;;;12.28;68.00;100417.41;1720803;80;20246;-75
2021/05/19 00:16:48;;;;;;;;;;;;;;;12.24;67.95;100418.38;1720740;81;20152;-75
2021/05/19 00:19:14;;;;;;;;;;;;;;;12.18;67.97;100415.94;1731629;81;20195;-75
2021/05/19 00:21:55;;;;;;;;;;;;;;;12.13;68.06;100421.23;1744677;81;20138;-75
2021/05/19 00:24:21;;;;;;;;;;;;;;;12.10;68.13;100416.58;1730457;81;20206;-75
2021/05/19 00:26:47;;;;;;;;;;;;;;;12.05;68.09;100423.61;1715721;81;20251;-74
2021/05/19 00:29:14;;;;;;;;;;;;;;;12.00;68.18;100418.98;1732873;81;20540;-74
2021/05/19 00:31:42;;;;;;;;;;;;;;;11.97;68.25;100419.91;1716400;81;20266;-74
2021/05/19 00:34:12;;;;;;;;;;;;;;;11.96;68.28;100423.39;1737916;81;20264;-75
2021/05/19 00:36:39;;;;;;;;;;;;;;;11.93;68.26;100420.91;1740546;81;20754;-75
2021/05/19 00:39:07;;;;;;;;;;;;;;;11.90;68.29;100423.13;1728074;81;20263;-74
2021/05/19 00:41:35;;;;;;;;;;;;;;;11.87;68.35;100421.91;1743527;81;20249;-74
2021/05/19 00:44:06;;;;;;;;;;;;;;;11.87;68.43;100421.06;1748313;79;20576;-74
2021/05/19 00:46:34;;;;;;;;;;;;;;;11.85;68.43;100425.43;1715755;81;20184;-74
2021/05/19 00:49:02;;;;;;;;;;;;;;;11.84;68.47;100421.98;1728014;81;20274;-74
2021/05/19 00:51:28;;;;;;;;;;;;;;;11.84;68.48;100421.98;1717013;81;20656;-74
2021/05/19 00:53:56;;;;;;;;;;;;;;;11.83;68.55;100422.88;1736239;81;20160;-74
2021/05/19 00:56:26;;;;;;;;;;;;;;;11.83;68.57;100422.02;1751353;81;20215;-74
2021/05/19 00:58:55;;;;;;;;;;;;;;;11.82;68.56;100423.77;1728945;81;20174;-74
2021/05/19 01:01:21;;;;;;;;;;;;;;;11.80;68.54;100422.95;1728816;81;20206;-74
2021/05/19 01:03:48;;;;;;;;;;;;;;;11.75;68.54;100423.47;1725898;81;20249;-74
2021/05/19 01:06:36;;;;;;;;;;;;;;;11.71;68.57;100421.84;1714831;81;20208;-75
2021/05/19 01:11:41;;;;;;;;;;;;;;;11.67;68.67;100425.83;1731477;81;20187;-74
2021/05/19 01:14:07;;;;;;;;;;;;;;;11.66;68.66;100425.42;1733124;81;20170;-74
2021/05/19 01:16:33;;;;;;;;;;;;;;;11.64;68.70;100424.61;1727195;82;20144;-74
2021/05/19 01:18:59;;;;;;;;;;;;;;;11.61;68.69;100424.23;1737790;81;20172;-74
2021/05/19 01:21:26;;;;;;;;;;;;;;;11.57;68.67;100426.48;1732530;82;20168;-74
2021/05/19 01:23:52;;;;;;;;;;;;;;;11.52;68.64;100427.88;1733958;82;20215;-74
2021/05/19 01:26:20;;;;;;;;;;;;;;;11.46;68.63;100428.02;1732691;82;20200;-74
2021/05/19 01:28:46;;;;;;;;;;;;;;;11.40;68.70;100429.48;1728786;82;20286;-74
2021/05/19 01:31:13;;;;;;;;;;;;;;;11.35;68.69;100424.00;1719765;82;20175;-74
2021/05/19 01:33:48;;;;;;;;;;;;;;;11.27;68.62;100428.90;1739734;81;20163;-74
2021/05/19 01:36:12;;;;;;;;;;;;;;;11.19;68.79;100431.24;1730321;81;20152;-74
2021/05/19 01:38:38;;;;;;;;;;;;;;;11.16;68.82;100432.60;1739721;81;20247;-74
2021/05/19 01:41:04;;;;;;;;;;;;;;;11.12;68.82;100434.41;1731535;81;20184;-74
2021/05/19 01:43:32;;;;;;;;;;;;;;;11.10;68.86;100436.61;1714483;82;20179;-74
2021/05/19 01:46:00;;;;;;;;;;;;;;;11.07;68.90;100440.11;1737875;81;20200;-74
2021/05/19 01:48:48;;;;;;;;;;;;;;;11.03;68.91;100441.06;1715177;82;20174;-74
2021/05/19 01:51:14;;;;;;;;;;;;;;;10.98;68.83;100437.71;1737899;81;20179;-74
2021/05/19 01:53:40;;;;;;;;;;;;;;;10.90;68.89;100441.78;1746179;81;20148;-74
2021/05/19 01:56:07;;;;;;;;;;;;;;;10.84;68.92;100434.58;1730005;81;20166;-74
2021/05/19 01:58:33;;;;;;;;;;;;;;;10.78;68.89;100439.44;1741480;81;20148;-74
2021/05/19 02:00:59;;;;;;;;;;;;;;;10.75;68.97;100437.34;1743345;81;20164;-74
2021/05/19 02:03:25;;;;;;;;;;;;;;;10.72;68.99;100436.97;1738847;81;20194;-74
2021/05/19 02:05:52;;;;;;;;;;;;;;;10.71;69.00;100440.87;1738057;81;20171;-74
2021/05/19 02:08:18;;;;;;;;;;;;;;;10.69;68.95;100443.48;1760517;81;20514;-74
2021/05/19 02:10:44;;;;;;;;;;;;;;;10.65;68.97;100440.98;1757638;80;20232;-74
2021/05/19 02:13:16;;;;;;;;;;;;;;;10.64;68.98;100447.05;1729550;81;20182;-75
2021/05/19 02:15:42;;;;;;;;;;;;;;;10.60;68.97;100444.95;1735344;81;20595;-75
2021/05/19 02:18:08;;;;;;;;;;;;;;;10.55;69.00;100447.63;1737455;81;20276;-75
2021/05/19 02:20:35;;;;;;;;;;;;;;;10.50;69.00;100437.81;1764066;81;20258;-75
2021/05/19 02:23:01;;;;;;;;;;;;;;;10.47;68.96;100447.35;1743870;81;20298;-74
2021/05/19 02:25:28;;;;;;;;;;;;;;;10.42;69.00;100442.70;1744012;80;20159;-74
2021/05/19 02:27:54;;;;;;;;;;;;;;;10.38;68.99;100451.42;1747580;80;20211;-74
2021/05/19 02:30:21;;;;;;;;;;;;;;;10.34;68.99;100451.06;1737308;81;21135;-75
2021/05/19 02:32:48;;;;;;;;;;;;;;;10.27;68.97;100444.71;1742313;81;20158;-75
2021/05/19 02:35:15;;;;;;;;;;;;;;;10.23;69.01;100459.85;1751306;81;20195;-75
2021/05/19 02:37:41;;;;;;;;;;;;;;;10.18;69.00;100456.46;1752925;81;20670;-74
2021/05/19 02:40:12;;;;;;;;;;;;;;;10.12;69.00;100459.59;1730908;80;20265;-74
2021/05/19 02:42:38;;;;;;;;;;;;;;;10.07;69.01;100454.94;1723695;81;20199;-74
2021/05/19 02:45:08;;;;;;;;;;;;;;;10.02;69.10;100458.03;1731817;81;20738;-74
2021/05/19 02:47:35;;;;;;;;;;;;;;;9.96;69.10;100459.83;1731329;81;20567;-74
2021/05/19 02:50:02;;;;;;;;;;;;;;;9.92;69.17;100456.88;1751556;81;20203;-74
2021/05/19 02:52:28;;;;;;;;;;;;;;;9.88;69.15;100455.23;1740111;81;20305;-74
2021/05/19 02:54:54;;;;;;;;;;;;;;;9.82;69.18;100459.66;1743533;81;20187;-75
2021/05/19 02:57:20;;;;;;;;;;;;;;;9.79;69.22;100459.27;1759262;81;20758;-75
2021/05/19 02:59:52;;;;;;;;;;;;;;;9.77;69.24;100457.59;1742305;81;20563;-75
2021/05/19 03:02:18;;;;;;;;;;;;;;;9.74;69.24;100459.78;1735850;81;20219;-75
2021/05/19 03:04:44;;;;;;;;;;;;;;;9.71;69.26;100468.00;1735138;81;20226;-75
2021/05/19 03:07:10;;;;;;;;;;;;;;;9.68;69.30;100470.20;1728659;81;20282;-75
2021/05/19 03:09:39;;;;;;;;;;;;;;;9.67;69.27;100465.05;1760758;81;20518;-75
2021/05/19 03:12:17;;;;;;;;;;;;;;;9.64;69.26;100472.41;1742221;81;20617;-75
2021/05/19 03:14:43;;;;;;;;;;;;;;;9.60;69.21;100469.45;1744362;81;20248;-75
2021/05/19 03:17:09;;;;;;;;;;;;;;;9.55;69.26;100472.09;1741329;81;20252;-75
2021/05/19 03:19:35;;;;;;;;;;;;;;;9.53;69.32;100475.14;1742964;81;20146;-74
2021/05/19 03:22:01;;;;;;;;;;;;;;;9.53;69.31;100475.58;1740334;81;20225;-74
2021/05/19 03:24:27;;;;;;;;;;;;;;;9.51;69.33;100473.45;1744204;81;20789;-74
2021/05/19 03:26:53;;;;;;;;;;;;;;;9.49;69.37;100475.20;1712718;82;20493;-74
2021/05/19 03:29:22;;;;;;;;;;;;;;;9.47;69.41;100482.11;1741798;81;20457;-75
2021/05/19 03:31:48;;;;;;;;;;;;;;;9.46;69.47;100482.55;1754086;81;20540;-75
2021/05/19 03:34:16;;;;;;;;;;;;;;;9.47;69.47;100484.69;1736981;81;20516;-74
2021/05/19 03:36:42;;;;;;;;;;;;;;;9.46;69.47;100491.58;1748229;81;20791;-74
2021/05/19 03:39:10;;;;;;;;;;;;;;;9.45;69.42;100481.28;1721735;81;20422;-74
2021/05/19 03:41:37;;;;;;;;;;;;;;;9.44;69.45;100488.60;1736394;81;20550;-74
2021/05/19 03:44:04;;;;;;;;;;;;;;;9.42;69.43;100493.78;1740708;81;20550;-75
2021/05/19 03:46:30;;;;;;;;;;;;;;;9.43;69.45;100484.31;1740465;81;20546;-75
2021/05/19 03:48:58;;;;;;;;;;;;;;;9.40;69.48;100483.06;1734726;81;20501;-75
2021/05/19 03:51:25;;;;;;;;;;;;;;;9.39;69.51;100487.38;1738093;81;20559;-75
2021/05/19 03:53:51;;;;;;;;;;;;;;;9.40;69.53;100491.66;1745041;81;20168;-75
2021/05/19 03:56:20;;;;;;;;;;;;;;;9.37;69.58;100492.13;1727586;81;20471;-75
2021/05/19 03:58:47;;;;;;;;;;;;;;;9.37;69.63;100493.42;1746624;81;20511;-74
2021/05/19 04:01:13;;;;;;;;;;;;;;;9.40;69.70;100502.42;1729979;81;20162;-74
2021/05/19 04:03:39;;;;;;;;;;;;;;;9.40;69.80;100500.69;1733210;81;20537;-75
2021/05/19 04:06:06;;;;;;;;;;;;;;;9.48;69.95;100499.30;1750062;80;20173;-75
2021/05/19 04:08:42;;;;;;;;;;;;;;;9.59;69.85;100506.47;1737673;81;21046;-75
2021/05/19 04:11:09;;;;;;;;;;;;;;;9.64;70.04;100504.67;1732700;81;20193;-75
2021/05/19 04:13:35;;;;;;;;;;;;;;;9.73;70.13;100508.42;1720526;81;20505;-75
2021/05/19 04:16:02;;;;;;;;;;;;;;;9.82;70.18;100513.89;1726426;81;20562;-75
2021/05/19 04:18:28;;;;;;;;;;;;;;;9.93;70.25;100511.54;1721578;81;20550;-75
2021/05/19 04:20:56;;;;;;;;;;;;;;;10.07;70.30;100514.35;1728498;81;20577;-74
2021/05/19 04:23:24;;;;;;;;;;;;;;;10.21;70.37;100517.17;1712619;81;34322;-74
2021/05/19 04:25:50;;;;;;;;;;;;;;;10.34;70.37;100509.22;1669344;84;20242;-74
2021/05/19 04:28:15;;;;;;;;;;;;;;;10.46;70.37;100517.59;1678244;84;20744;-74
2021/05/19 04:30:41;;;;;;;;;;;;;;;10.59;70.35;100511.77;1667787;84;20448;-74
2021/05/19 04:33:07;;;;;;;;;;;;;;;10.70;70.33;100512.88;1663337;84;20780;-75
2021/05/19 04:35:33;;;;;;;;;;;;;;;10.82;70.40;100515.23;1669990;84;20260;-74
2021/05/19 04:38:00;;;;;;;;;;;;;;;10.86;70.30;100511.71;1682457;83;20761;-74
2021/05/19 04:40:26;;;;;;;;;;;;;;;10.90;70.17;100514.21;1676779;84;20615;-74
2021/05/19 04:42:52;;;;;;;;;;;;;;;10.87;70.23;100516.86;1669076;83;20292;-74
2021/05/19 04:45:18;;;;;;;;;;;;;;;10.91;70.24;100517.66;1671399;84;20182;-74
2021/05/19 04:47:44;;;;;;;;;;;;;;;10.98;70.44;100524.83;1670688;83;20268;-74
2021/05/19 04:50:12;;;;;;;;;;;;;;;11.11;70.50;100528.89;1666390;84;20556;-74
2021/05/19 04:52:38;;;;;;;;;;;;;;;11.26;70.63;100526.00;1680780;84;21037;-74
2021/05/19 04:55:06;;;;;;;;;;;;;;;11.35;70.43;100527.10;1672924;84;20251;-74
2021/05/19 04:57:42;;;;;;;;;;;;;;;11.47;70.56;100524.67;1673276;84;20566;-74
2021/05/19 05:00:10;;;;;;;;;;;;;;;11.58;70.46;100526.59;1674398;84;20250;-74
2021/05/19 05:02:37;;;;;;;;;;;;;;;11.68;70.50;100525.52;1665386;84;21216;-75
2021/05/19 05:05:05;;;;;;;;;;;;;;;11.80;70.61;100516.65;1659149;84;20550;-76
2021/05/19 05:07:31;;;;;;;;;;;;;;;11.94;70.51;100523.67;1673318;84;20273;-80
2021/05/19 05:09:57;;;;;;;;;;;;;;;12.11;70.60;100524.55;1682447;84;20223;-77
2021/05/19 05:12:24;;;;;;;;;;;;;;;12.36;70.65;100526.11;1675164;84;21132;-76
2021/05/19 05:14:50;;;;;;;;;;;;;;;12.59;70.63;100522.46;1681476;83;21126;-77
2021/05/19 05:17:16;;;;;;;;;;;;;;;12.79;70.46;100528.43;1675720;84;20728;-76
2021/05/19 05:19:42;;;;;;;;;;;;;;;12.97;70.42;100533.13;1672301;84;20612;-76
2021/05/19 05:22:09;;;;;;;;;;;;;;;13.31;70.74;100531.76;1646611;85;21098;-76
2021/05/19 05:24:35;;;;;;;;;;;;;;;13.91;70.97;100532.96;1679789;84;20618;-77
2021/05/19 05:27:01;;;;;;;;;;;;;;;14.46;70.23;100534.25;1675783;84;20327;-76
2021/05/19 05:29:28;;;;;;;;;;;;;;;14.76;69.75;100529.73;1675570;84;20486;-77
2021/05/19 05:31:54;;;;;;;;;;;;;;;14.93;69.60;100536.52;1680002;84;20605;-76
2021/05/19 05:34:20;;;;;;;;;;;;;;;15.22;69.68;100535.00;1676008;84;20517;-76
2021/05/19 05:36:46;;;;;;;;;;;;;;;15.32;69.06;100537.27;1678706;84;20184;-76
2021/05/19 05:39:13;;;;;;;;;;;;;;;15.37;69.28;100541.41;1682112;84;20180;-76
2021/05/19 05:41:39;;;;;;;;;;;;;;;15.48;69.24;100542.31;1681027;84;20191;-76
2021/05/19 05:44:05;;;;;;;;;;;;;;;15.59;69.13;100539.34;1679688;84;20723;-76
2021/05/19 05:46:31;;;;;;;;;;;;;;;15.71;68.95;100542.30;1680196;84;20191;-77
2021/05/19 05:48:58;;;;;;;;;;;;;;;16.15;69.49;100537.93;1686432;84;20146;-76
2021/05/19 05:51:24;;;;;;;;;;;;;;;16.84;69.25;100541.61;1675264;84;20181;-76
2021/05/19 05:53:51;;;;;;;;;;;;;;;17.45;69.49;100542.34;1677521;84;20156;-77
2021/05/19 05:56:17;;;;;;;;;;;;;;;18.14;68.86;100541.27;1683909;84;20166;-77
2021/05/19 05:58:43;;;;;;;;;;;;;;;18.34;68.21;100537.66;1679879;84;20157;-77
2021/05/19 06:01:10;;;;;;;;;;;;;;;18.43;68.13;100537.66;1679661;84;20181;-77
2021/05/19 06:03:37;;;;;;;;;;;;;;;18.56;68.03;100540.52;1680592;84;20170;-77
2021/05/19 06:06:03;;;;;;;;;;;;;;;19.00;68.15;100541.73;1676161;84;20531;-76
2021/05/19 06:08:31;;;;;;;;;;;;;;;19.56;67.99;100543.59;1682326;84;20178;-76
2021/05/19 06:10:57;;;;;;;;;;;;;;;20.07;67.71;100542.47;1669698;84;20805;-77
2021/05/19 06:13:24;;;;;;;;;;;;;;;20.53;67.27;100539.36;1669729;84;20959;-77
2021/05/19 06:15:51;;;;;;;;;;;;;;;20.91;67.03;100546.74;1663424;84;20522;-77
2021/05/19 06:18:18;;;;;;;;;;;;;;;21.18;66.96;100550.34;1672934;85;20195;-77
2021/05/19 06:20:48;;;;;;;;;;;;;;;21.25;66.54;100551.69;1667771;84;20604;-77
2021/05/19 06:23:14;;;;;;;;;;;;;;;21.36;66.87;100554.95;1651925;85;20624;-76
2021/05/19 06:25:41;;;;;;;;;;;;;;;21.60;66.46;100552.58;1653201;85;20255;-76
2021/05/19 06:28:07;;;;;;;;;;;;;;;21.81;66.19;100551.23;1671118;84;20543;-77
2021/05/19 06:30:33;;;;;;;;;;;;;;;22.06;65.86;100559.72;1666157;84;20190;-77
2021/05/19 06:32:59;;;;;;;;;;;;;;;22.02;65.49;100549.86;1659105;85;20215;-76
2021/05/19 06:35:25;;;;;;;;;;;;;;;22.02;64.98;100551.65;1664829;84;20175;-76
2021/05/19 06:37:52;;;;;;;;;;;;;;;21.64;64.86;100544.40;1665677;84;20692;-76
2021/05/19 06:40:18;;;;;;;;;;;;;;;21.71;65.30;100543.06;1659003;85;20647;-77
2021/05/19 06:42:44;;;;;;;;;;;;;;;21.85;65.23;100540.84;1661690;85;20199;-77
2021/05/19 06:45:22;;;;;;;;;;;;;;;22.07;65.67;100542.98;1661123;85;20197;-77
2021/05/19 06:47:48;;;;;;;;;;;;;;;21.78;64.47;100545.69;1670429;84;20567;-77
2021/05/19 06:50:14;;;;;;;;;;;;;;;21.84;64.50;100540.95;1671070;82;20194;-77
2021/05/19 06:52:41;;;;;;;;;;;;;;;21.96;64.71;100545.42;1670209;85;20255;-77
2021/05/19 06:55:07;;;;;;;;;;;;;;;22.02;64.35;100547.70;1661015;84;20529;-77
2021/05/19 06:57:36;;;;;;;;;;;;;;;22.20;64.16;100541.71;1661639;85;20510;-77
2021/05/19 07:00:07;;;;;;;;;;;;;;;22.15;63.60;100545.96;1670669;85;20223;-77
2021/05/19 07:02:33;;;;;;;;;;;;;;;21.77;64.61;100545.78;1656889;85;20170;-77
2021/05/19 07:05:07;;;;;;;;;;;;;;;21.55;63.90;100547.61;1665750;85;20191;-78
2021/05/19 07:07:33;;;;;;;;;;;;;;;21.76;63.76;100546.26;1666196;84;20196;-76
2021/05/19 07:10:00;;;;;;;;;;;;;;;22.08;63.63;100544.20;1663291;85;20245;-77
2021/05/19 07:12:30;;;;;;;;;;;;;;;22.49;63.26;100546.35;1665047;85;20201;-77
2021/05/19 07:15:02;;;;;;;;;;;;;;;22.85;63.23;100546.55;1665393;85;20188;-78
2021/05/19 07:17:27;;;;;;;;;;;;;;;23.23;63.22;100545.20;1663773;85;20157;-77
2021/05/19 07:19:53;;;;;;;;;;;;;;;23.47;62.62;100545.25;1663990;85;20205;-77
2021/05/19 07:22:19;;;;;;;;;;;;;;;23.39;62.48;100547.62;1664141;84;20161;-78
2021/05/19 07:24:47;;;;;;;;;;;;;;;23.45;62.37;100543.20;1660712;85;20196;-77
2021/05/19 07:27:14;;;;;;;;;;;;;;;23.59;61.93;100536.97;1666130;85;20220;-78
2021/05/19 07:29:42;;;;;;;;;;;;;;;23.51;61.98;100539.28;1654173;85;20149;-77
2021/05/19 07:32:08;;;;;;;;;;;;;;;23.66;61.57;100543.02;1665995;85;20172;-77
2021/05/19 07:34:34;;;;;;;;;;;;;;;23.69;61.70;100537.52;1660619;85;20575;-77
2021/05/19 07:37:00;;;;;;;;;;;;;;;23.94;61.20;100540.53;1663442;85;20249;-77
2021/05/19 07:39:26;;;;;;;;;;;;;;;23.86;60.43;100537.63;1662608;85;20215;-77
2021/05/19 07:41:52;;;;;;;;;;;;;;;23.84;60.47;100535.58;1659495;85;20161;-77
2021/05/19 07:44:18;;;;;;;;;;;;;;;23.96;60.14;100541.73;1661819;84;20537;-78
2021/05/19 07:46:44;;;;;;;;;;;;;;;23.97;60.15;100538.14;1664383;84;20547;-78
2021/05/19 07:49:12;;;;;;;;;;;;;;;23.84;59.67;100539.54;1656208;85;20220;-77
2021/05/19 07:51:38;;;;;;;;;;;;;;;23.82;59.52;100537.48;1664393;85;20246;-78
2021/05/19 07:54:05;;;;;;;;;;;;;;;23.63;59.20;100544.56;1660662;85;20235;-78
2021/05/19 07:56:42;;;;;;;;;;;;;;;23.59;58.92;100544.89;1661287;85;20176;-77
2021/05/19 07:59:11;;;;;;;;;;;;;;;23.48;58.52;100539.50;1654714;85;20181;-78
2021/05/19 08:04:12;;;;;;;;;;;;;;;23.29;58.25;100546.57;1663091;85;20189;-77
2021/05/19 08:06:38;;;;;;;;;;;;;;;23.12;57.86;100542.47;1663943;85;20197;-77
2021/05/19 08:09:05;;;;;;;;;;;;;;;23.08;57.79;100544.47;1655930;85;20188;-76
2021/05/19 08:11:31;;;;;;;;;;;;;;;22.94;57.54;100545.05;1663171;85;20568;-76
2021/05/19 08:13:57;;;;;;;;;;;;;;;22.95;57.45;100537.50;1664580;84;20165;-76
2021/05/19 08:16:24;;;;;;;;;;;;;;;22.85;57.36;100533.37;1657022;85;20382;-77
2021/05/19 08:18:50;;;;;;;;;;;;;;;22.67;57.22;100542.48;1696471;83;20181;-78
2021/05/19 08:21:16;;;;;;;;;;;;;;;22.51;57.26;100535.23;1663724;85;20180;-78
2021/05/19 08:23:42;;;;;;;;;;;;;;;22.60;56.76;100539.42;1664656;85;20571;-77
2021/05/19 08:26:08;;;;;;;;;;;;;;;22.65;56.63;100541.27;1663256;85;20196;-78
2021/05/19 08:28:36;;;;;;;;;;;;;;;22.58;56.29;100545.27;1665671;85;20172;-77
2021/05/19 08:31:04;;;;;;;;;;;;;;;22.50;56.59;100544.93;1668593;85;20193;-77
2021/05/19 08:33:31;;;;;;;;;;;;;;;22.46;56.37;100546.08;1665096;85;20197;-77
2021/05/19 08:35:57;;;;;;;;;;;;;;;22.49;56.22;100547.20;1665228;85;20599;-77
2021/05/19 08:38:23;;;;;;;;;;;;;;;22.53;56.08;100545.20;1662559;85;20186;-77
2021/05/19 08:40:49;;;;;;;;;;;;;;;22.52;56.05;100549.63;1664929;85;20167;-77
2021/05/19 08:43:16;;;;;;;;;;;;;;;22.41;55.54;100556.08;1657363;85;20222;-77
2021/05/19 08:45:42;;;;;;;;;;;;;;;22.07;55.15;100556.99;1660296;85;20539;-77
2021/05/19 08:48:08;;;;;;;;;;;;;;;21.82;55.11;100558.19;1669312;85;20151;-77
2021/05/19 08:50:37;;;;;;;;;;;;;;;22.09;55.29;100556.89;1659067;85;20512;-76
2021/05/19 08:53:08;;;;;;;;;;;;;;;22.02;54.99;100549.86;1663743;85;20197;-76
2021/05/19 08:55:36;;;;;;;;;;;;;;;22.04;55.09;100556.34;1655957;85;20164;-77
2021/05/19 08:58:03;;;;;;;;;;;;;;;22.57;54.63;100554.59;1664878;85;20176;-76
2021/05/19 09:00:31;;;;;;;;;;;;;;;22.97;54.17;100547.00;1663811;85;20165;-76
2021/05/19 09:03:08;;;;;;;;;;;;;;;23.39;54.16;100551.58;1663213;84;20158;-76
2021/05/19 09:05:36;;;;;;;;;;;;;;;23.43;53.89;100551.22;1663816;85;20196;-77
2021/05/19 09:08:08;;;;;;;;;;;;;;;23.37;54.21;100549.05;1666181;85;20176;-75
2021/05/19 09:10:36;;;;;;;;;;;;;;;22.94;54.04;100551.17;1660458;84;20212;-76
2021/05/19 09:13:03;;;;;;;;;;;;;;;22.82;53.79;100547.23;1680968;84;20193;-76
2021/05/19 09:15:48;;;;;;;;;;;;;;;22.96;54.26;100542.67;1685694;84;20215;-76
2021/05/19 09:18:17;;;;;;;;;;;;;;;23.07;54.02;100541.94;1666000;84;20208;-76
2021/05/19 09:20:48;;;;;;;;;;;;;;;22.63;53.40;100537.89;1677590;84;20203;-76
2021/05/19 09:23:23;;;;;;;;;;;;;;;21.94;53.48;100545.52;1677222;84;20197;-76
2021/05/19 09:26:03;;;;;;;;;;;;;;;21.40;53.34;100536.25;1662657;84;20193;-76
2021/05/19 09:28:29;;;;;;;;;;;;;;;21.06;53.50;100540.09;1665155;85;20215;-75
2021/05/19 09:30:55;;;;;;;;;;;;;;;20.76;52.93;100536.70;1683675;84;20194;-74
2021/05/19 09:33:24;;;;;;;;;;;;;;;20.53;52.64;100539.83;1642749;85;20184;-75
2021/05/19 09:36:09;;;;;;;;;;;;;;;20.25;52.55;100535.33;1679063;84;20186;-78
2021/05/19 09:38:36;;;;;;;;;;;;;;;20.18;52.76;100536.61;1665191;85;20303;-75
2021/05/19 09:41:26;;;;;;;;;;;;;;;19.97;52.31;100544.75;1677268;82;20645;-77
2021/05/19 09:43:57;;;;;;;;;;;;;;;19.75;51.84;100542.97;1675744;84;20666;-76
2021/05/19 09:49:20;;;;;;;;;;;;;;;19.27;52.02;100555.13;1676279;84;20299;-76
2021/05/19 09:51:51;;;;;;;;;;;;;;;19.08;51.71;100555.28;1675109;84;20329;-76
2021/05/19 09:54:30;;;;;;;;;;;;;;;18.85;51.84;100546.45;1681044;84;20333;-76
2021/05/19 09:56:59;;;;;;;;;;;;;;;18.65;51.71;100550.10;1680755;84;20196;-76
2021/05/19 09:59:26;;;;;;;;;;;;;;;18.54;51.64;100548.45;1675477;84;20558;-76
2021/05/19 10:01:53;;;;;;;;;;;;;;;18.54;51.81;100551.07;1665709;84;20229;-76
2021/05/19 10:04:26;;;;;;;;;;;;;;;18.57;51.83;100546.14;1676921;84;20611;-76
2021/05/19 10:06:51;;;;;;;;;;;;;;;18.63;51.49;100541.94;1679278;84;20243;-76
2021/05/19 10:09:17;;;;;;;;;;;;;;;18.76;51.61;100525.95;1675696;84;20145;-76
2021/05/19 10:11:44;;;;;;;;;;;;;;;18.81;51.33;100523.48;1680532;84;20175;-77
2021/05/19 10:14:14;;;;;;;;;;;;;;;18.78;51.11;100534.12;1674837;84;20166;-77
2021/05/19 10:16:44;;;;;;;;;;;;;;;18.66;51.21;100537.86;1666590;84;20164;-76
2021/05/19 10:19:14;;;;;;;;;;;;;;;18.40;50.79;100543.05;1683941;84;20199;-76
2021/05/19 10:21:40;;;;;;;;;;;;;;;18.15;50.81;100549.51;1680061;84;20213;-76
2021/05/19 10:24:14;;;;;;;;;;;;;;;18.04;50.91;100547.87;1676227;84;20200;-76
2021/05/19 10:27:02;;;;;;;;;;;;;;;17.98;50.92;100544.69;1681464;82;20461;-76
2021/05/19 10:29:55;;;;;;;;;;;;;;;18.00;50.88;100549.39;1675760;84;20227;-76
2021/05/19 10:32:29;;;;;;;;;;;;;;;18.08;50.95;100548.56;1681878;84;20196;-76
2021/05/19 10:34:53;;;;;;;;;;;;;;;18.13;50.67;100546.58;1680264;84;20201;-76
2021/05/19 10:37:32;;;;;;;;;;;;;;;18.18;50.75;100541.97;1674610;84;20740;-76
2021/05/19 10:40:13;;;;;;;;;;;;;;;18.26;50.67;100538.48;1682199;84;20183;-77
2021/05/19 10:42:42;;;;;;;;;;;;;;;18.36;50.71;100534.50;1676006;84;20603;-76
2021/05/19 10:45:14;;;;;;;;;;;;;;;18.38;50.70;100531.80;1664395;84;20174;-76
2021/05/19 10:47:42;;;;;;;;;;;;;;;18.47;50.91;100533.97;1677653;84;20215;-77
2021/05/19 10:58:46;;;;;;;;;;;;;;;18.58;50.63;100532.13;1677552;84;20168;-77
2021/05/19 11:01:11;;;;;;;;;;;;;;;18.65;50.39;100533.55;1677266;84;20196;-77
2021/05/19 11:03:40;;;;;;;;;;;;;;;18.63;50.24;100524.91;1681284;84;20585;-76
2021/05/19 11:06:11;;;;;;;;;;;;;;;18.66;50.46;100523.45;1675848;84;20189;-76
2021/05/19 11:08:38;;;;;;;;;;;;;;;18.76;50.45;100523.34;1678235;84;20239;-76
2021/05/19 11:11:17;;;;;;;;;;;;;;;18.88;50.40;100524.48;1676684;84;20203;-77
2021/05/19 11:13:55;;;;;;;;;;;;;;;19.04;50.49;100530.16;1676196;84;20359;-80
2021/05/19 11:16:26;;;;;;;;;;;;;;;19.16;50.07;100524.27;1680219;84;20300;-77
2021/05/19 11:19:06;;;;;;;;;;;;;;;19.20;49.82;100522.80;1684428;84;20180;-76
2021/05/19 11:21:28;;;;;;;;;;;;;;;19.22;50.03;100530.12;1673183;83;20190;-77
2021/05/19 11:24:06;;;;;;;;;;;;;;;19.05;49.61;100531.01;1680428;84;20612;-76
2021/05/19 11:26:38;;;;;;;;;;;;;;;18.88;49.90;100531.87;1666636;84;20541;-76
2021/05/19 11:29:04;;;;;;;;;;;;;;;18.78;49.68;100535.89;1682523;82;20219;-75
2021/05/19 11:31:37;;;;;;;;;;;;;;;18.75;49.64;100538.67;1674407;84;20164;-76
2021/05/19 11:34:04;;;;;;;;;;;;;;;18.74;49.48;100531.73;1683614;83;20195;-76
2021/05/19 11:36:35;;;;;;;;;;;;;;;18.67;49.35;100536.47;1682913;84;20199;-76
2021/05/19 11:39:05;;;;;;;;;;;;;;;18.57;49.32;100541.75;1678096;84;20196;-76
2021/05/19 11:41:32;;;;;;;;;;;;;;;18.53;49.17;100539.75;1680218;84;20223;-76
2021/05/19 11:43:58;;;;;;;;;;;;;;;18.46;49.06;100537.05;1679831;84;20190;-75
2021/05/19 11:46:25;;;;;;;;;;;;;;;18.38;49.16;100533.11;1679497;84;20192;-76
2021/05/19 11:48:51;;;;;;;;;;;;;;;18.39;49.16;100536.97;1675941;84;20646;-74
2021/05/19 11:51:21;;;;;;;;;;;;;;;18.40;49.20;100534.73;1675923;84;20192;-74
2021/05/19 11:54:00;;;;;;;;;;;;;;;18.42;49.16;100534.66;1666588;85;20191;-75
2021/05/19 11:56:41;;;;;;;;;;;;;;;18.49;49.31;100527.73;1680072;84;20189;-75
2021/05/19 11:59:21;;;;;;;;;;;;;;;18.60;49.24;100510.20;1676884;84;20177;-75
2021/05/19 12:01:59;;;;;;;;;;;;;;;18.78;49.27;100511.85;1667941;84;20188;-75
2021/05/19 12:04:27;;;;;;;;;;;;;;;19.00;49.19;100511.59;1679867;84;20196;-76
2021/05/19 12:06:54;;;;;;;;;;;;;;;19.03;49.13;100517.13;1684833;84;20543;-76
2021/05/19 12:09:22;;;;;;;;;;;;;;;19.14;49.29;100518.73;1679364;84;20196;-76
2021/05/19 12:11:50;;;;;;;;;;;;;;;19.27;49.01;100511.87;1691327;84;20211;-75
2021/05/19 12:14:17;;;;;;;;;;;;;;;19.38;49.00;100517.39;1682552;84;20191;-75
2021/05/19 12:16:45;;;;;;;;;;;;;;;19.34;48.81;100521.11;1671757;84;20199;-74
2021/05/19 12:19:13;;;;;;;;;;;;;;;19.26;48.48;100526.38;1676519;84;20172;-75
2021/05/19 12:21:51;;;;;;;;;;;;;;;19.14;48.66;100533.99;1682250;84;20192;-76
2021/05/19 12:24:19;;;;;;;;;;;;;;;19.10;48.54;100524.59;1671840;83;20487;-75
2021/05/19 12:26:46;;;;;;;;;;;;;;;19.14;48.58;100524.81;1666710;84;20196;-75
2021/05/19 12:29:34;;;;;;;;;;;;;;;19.13;48.31;100527.52;1676737;84;20167;-75
2021/05/19 12:32:22;;;;;;;;;;;;;;;19.07;48.52;100525.22;1684298;84;20172;-76
2021/05/19 12:35:08;;;;;;;;;;;;;;;18.97;47.95;100523.55;1679650;84;20181;-76
2021/05/19 12:37:40;;;;;;;;;;;;;;;18.82;47.98;100523.88;1684880;83;20181;-74
2021/05/19 12:40:08;;;;;;;;;;;;;;;18.83;48.24;100526.03;1667376;84;20199;-74
2021/05/19 12:42:41;;;;;;;;;;;;;;;18.90;48.24;100526.56;1694282;83;20158;-74
2021/05/19 12:45:10;;;;;;;;;;;;;;;18.87;48.04;100530.19;1692830;84;20212;-74
2021/05/19 12:48:08;;;;;;;;;;;;;;;18.84;48.07;100521.17;1683647;84;20166;-74
2021/05/19 12:50:48;;;;;;;;;;;;;;;18.79;47.79;100521.87;1700589;84;20497;-74
2021/05/19 12:53:42;;;;;;;;;;;;;;;18.74;47.68;100524.73;1693100;84;20154;-75
2021/05/19 12:56:17;;;;;;;;;;;;;;;18.74;47.71;100527.34;1670420;84;20492;-75
2021/05/19 12:59:05;;;;;;;;;;;;;;;18.73;47.41;100523.03;1681309;84;20160;-75
2021/05/19 13:01:30;;;;;;;;;;;;;;;18.74;47.70;100528.66;1680085;84;20189;-75
2021/05/19 13:03:59;;;;;;;;;;;;;;;18.79;47.66;100525.34;1681918;84;20208;-75